^^
TXWeather Station Historical Data
 
Daily Summary for July 07, 2022 Units:  English    Metric   Both
Daily Weekly Monthly Yearly Custom
  Current: High: Low: Average:
Temperature: 96.3 °F 96.3 °F 78.3 °F 82.7 °F
Dew Point: 75.2 °F 77.7 °F 73.2 °F 75.2 °F
Humidity: 51% 88% 51% 79%
Wind Speed: 8mph 16mph 0mph 4.2mph
Wind Gust: 8mph 16mph - -
WindSouth - - South
Pressure: 30.1 in 30.1 in 30.0 in -
Precipitation: 0.000 in      
Historical Graphs
 
 
Tabular Data for July 07, 2022
Time Temperature Dew Point Pressure Wind Wind Speed Wind Gust Humidity Rainfall Rate (Hourly) solar
00:04 83.5 °F 75.0 °F 30.0 in SSE 6 mph 6 mph 76% 0.000 in 0.00 W/m2
00:09 83.5 °F 75.0 °F 30.0 in South 4 mph 6 mph 76% 0.000 in 0.00 W/m2
00:14 83.3 °F 75.0 °F 30.0 in SSE 5 mph 6 mph 76% 0.000 in 0.00 W/m2
00:19 83.1 °F 75.2 °F 30.0 in SSE 4 mph 6 mph 77% 0.000 in 0.00 W/m2
00:24 83.1 °F 75.2 °F 30.0 in South 5 mph 5 mph 77% 0.000 in 0.00 W/m2
00:29 82.9 °F 75.0 °F 30.0 in South 4 mph 4 mph 77% 0.000 in 0.00 W/m2
00:34 82.9 °F 75.0 °F 30.0 in South 4 mph 5 mph 77% 0.000 in 0.00 W/m2
00:39 82.9 °F 75.0 °F 30.0 in South 4 mph 5 mph 77% 0.000 in 0.00 W/m2
00:44 82.8 °F 74.8 °F 30.0 in SSE 2 mph 5 mph 77% 0.000 in 0.00 W/m2
00:49 82.8 °F 75.0 °F 30.0 in South 3 mph 4 mph 78% 0.000 in 0.00 W/m2
00:54 82.6 °F 75.0 °F 30.0 in South 5 mph 5 mph 78% 0.000 in 0.00 W/m2
00:59 82.6 °F 75.0 °F 30.0 in SSE 4 mph 5 mph 78% 0.000 in 0.00 W/m2
01:04 82.6 °F 75.0 °F 30.0 in SSE 4 mph 5 mph 78% 0.000 in 0.00 W/m2
01:09 82.4 °F 74.8 °F 30.0 in South 2 mph 5 mph 78% 0.000 in 0.00 W/m2
01:14 82.4 °F 74.8 °F 30.0 in South 4 mph 5 mph 78% 0.000 in 0.00 W/m2
01:19 82.2 °F 75.0 °F 30.0 in South 3 mph 4 mph 79% 0.000 in 0.00 W/m2
01:24 82.2 °F 75.0 °F 30.0 in South 3 mph 3 mph 79% 0.000 in 0.00 W/m2
01:29 82.2 °F 75.0 °F 30.0 in South 3 mph 3 mph 79% 0.000 in 0.00 W/m2
01:34 82.0 °F 74.8 °F 30.0 in South 3 mph 3 mph 79% 0.000 in 0.00 W/m2
01:39 82.0 °F 74.8 °F 30.0 in South 3 mph 3 mph 79% 0.000 in 0.00 W/m2
01:44 82.0 °F 74.8 °F 30.0 in South 3 mph 3 mph 79% 0.000 in 0.00 W/m2
01:49 82.0 °F 75.0 °F 30.0 in South 2 mph 3 mph 80% 0.000 in 0.00 W/m2
01:54 81.9 °F 75.0 °F 30.0 in South 2 mph 3 mph 80% 0.000 in 0.00 W/m2
01:59 81.9 °F 75.0 °F 30.0 in South 3 mph 3 mph 80% 0.000 in 0.00 W/m2
02:04 81.9 °F 75.0 °F 30.0 in South 3 mph 4 mph 80% 0.000 in 0.00 W/m2
02:09 81.7 °F 74.8 °F 30.0 in South 4 mph 4 mph 80% 0.000 in 0.00 W/m2
02:14 81.7 °F 74.8 °F 30.0 in South 4 mph 4 mph 80% 0.000 in 0.00 W/m2
02:19 81.7 °F 74.8 °F 30.0 in South 2 mph 4 mph 80% 0.000 in 0.00 W/m2
02:24 81.5 °F 74.7 °F 30.0 in South 2 mph 3 mph 80% 0.000 in 0.00 W/m2
02:29 81.3 °F 74.5 °F 30.0 in South 2 mph 3 mph 80% 0.000 in 0.00 W/m2
02:34 81.3 °F 74.8 °F 30.0 in South 2 mph 3 mph 81% 0.000 in 0.00 W/m2
02:39 81.1 °F 74.7 °F 30.0 in South 2 mph 2 mph 81% 0.000 in 0.00 W/m2
02:44 81.1 °F 74.7 °F 30.0 in South 1 mph 2 mph 81% 0.000 in 0.00 W/m2
02:49 81.1 °F 74.7 °F 30.0 in South 2 mph 2 mph 81% 0.000 in 0.00 W/m2
02:54 81.0 °F 74.7 °F 30.0 in South 2 mph 2 mph 81% 0.000 in 0.00 W/m2
02:59 81.0 °F 74.7 °F 30.0 in South 2 mph 2 mph 81% 0.000 in 0.00 W/m2
03:04 81.0 °F 74.7 °F 30.0 in South 2 mph 3 mph 81% 0.000 in 0.00 W/m2
03:09 80.8 °F 74.5 °F 30.0 in South 1 mph 2 mph 81% 0.000 in 0.00 W/m2
03:14 80.8 °F 74.8 °F 30.0 in South 2 mph 3 mph 82% 0.000 in 0.00 W/m2
03:19 80.8 °F 74.8 °F 30.0 in South 3 mph 3 mph 82% 0.000 in 0.00 W/m2
03:24 80.6 °F 74.7 °F 30.0 in South 2 mph 3 mph 82% 0.000 in 0.00 W/m2
03:29 80.6 °F 74.7 °F 30.0 in South 3 mph 3 mph 82% 0.000 in 0.00 W/m2
03:34 80.4 °F 74.8 °F 30.0 in South 4 mph 4 mph 83% 0.000 in 0.00 W/m2
03:39 80.4 °F 74.8 °F 30.0 in South 3 mph 4 mph 83% 0.000 in 0.00 W/m2
03:44 80.4 °F 74.8 °F 30.0 in South 3 mph 3 mph 83% 0.000 in 0.00 W/m2
03:49 80.2 °F 74.7 °F 30.0 in South 1 mph 3 mph 83% 0.000 in 0.00 W/m2
03:54 80.2 °F 74.7 °F 30.0 in South 2 mph 2 mph 83% 0.000 in 0.00 W/m2
03:59 80.2 °F 74.7 °F 30.0 in South 2 mph 2 mph 83% 0.000 in 0.00 W/m2
04:04 80.2 °F 74.7 °F 30.0 in South 2 mph 2 mph 83% 0.000 in 0.00 W/m2
04:09 80.2 °F 74.7 °F 30.0 in South 4 mph 4 mph 83% 0.000 in 0.00 W/m2
04:14 80.2 °F 74.7 °F 30.0 in South 4 mph 4 mph 83% 0.000 in 0.00 W/m2
04:19 80.1 °F 74.8 °F 30.0 in South 4 mph 4 mph 84% 0.000 in 0.00 W/m2
04:24 80.1 °F 74.8 °F 30.0 in SSE 4 mph 4 mph 84% 0.000 in 0.00 W/m2
04:29 80.1 °F 74.8 °F 30.0 in SSE 3 mph 4 mph 84% 0.000 in 0.00 W/m2
04:34 80.1 °F 74.8 °F 30.0 in SSE 3 mph 4 mph 84% 0.000 in 0.00 W/m2
04:39 80.1 °F 74.8 °F 30.0 in SSE 3 mph 4 mph 84% 0.000 in 0.00 W/m2
04:44 80.1 °F 74.8 °F 30.0 in SSE 4 mph 4 mph 84% 0.000 in 0.00 W/m2
04:49 79.9 °F 74.7 °F 30.0 in SSE 3 mph 4 mph 84% 0.000 in 0.00 W/m2
04:54 79.9 °F 74.7 °F 30.0 in SSE 4 mph 4 mph 84% 0.000 in 0.00 W/m2
04:59 79.9 °F 74.7 °F 30.0 in SSE 3 mph 3 mph 84% 0.000 in 0.00 W/m2
05:04 79.9 °F 74.7 °F 30.0 in SSE 1 mph 3 mph 84% 0.000 in 0.00 W/m2
05:09 79.7 °F 74.5 °F 30.0 in SSE 2 mph 2 mph 84% 0.000 in 0.00 W/m2
05:14 79.5 °F 74.3 °F 30.0 in SSE 2 mph 2 mph 84% 0.000 in 0.00 W/m2
05:19 79.5 °F 74.3 °F 30.0 in SSE 2 mph 2 mph 84% 0.000 in 0.00 W/m2
05:24 79.5 °F 74.3 °F 30.0 in SSE 1 mph 1 mph 84% 0.000 in 0.00 W/m2
05:29 79.5 °F 74.3 °F 30.0 in SSE 1 mph 1 mph 84% 0.000 in 0.00 W/m2
05:34 79.3 °F 74.1 °F 30.0 in SSE 1 mph 1 mph 84% 0.000 in 0.00 W/m2
05:39 79.3 °F 74.1 °F 30.0 in SSE 1 mph 1 mph 84% 0.000 in 0.00 W/m2
05:44 79.2 °F 73.9 °F 30.0 in SSE 1 mph 1 mph 84% 0.000 in 0.00 W/m2
05:49 79.2 °F 73.9 °F 30.0 in Calm   1 mph 84% 0.000 in 0.00 W/m2
05:54 79.0 °F 73.8 °F 30.0 in Calm   1 mph 84% 0.000 in 0.00 W/m2
05:59 79.0 °F 73.8 °F 30.0 in Calm     84% 0.000 in 0.00 W/m2
06:04 78.8 °F 73.6 °F 30.0 in Calm     84% 0.000 in 0.00 W/m2
06:09 78.6 °F 73.4 °F 30.0 in Calm     84% 0.000 in 0.00 W/m2
06:14 78.4 °F 73.2 °F 30.0 in Calm     84% 0.000 in 0.00 W/m2
06:19 78.4 °F 73.4 °F 30.0 in Calm     85% 0.000 in 0.00 W/m2
06:24 78.4 °F 73.6 °F 30.0 in Calm     85% 0.000 in 0.00 W/m2
06:29 78.4 °F 73.6 °F 30.0 in SSE 2 mph 2 mph 85% 0.000 in 0.00 W/m2
06:34 78.4 °F 73.6 °F 30.0 in SSE 1 mph 2 mph 85% 0.000 in 0.00 W/m2
06:39 78.4 °F 73.6 °F 30.0 in Calm   1 mph 85% 0.000 in 5.00 W/m2
06:44 78.3 °F 73.4 °F 30.0 in Calm     85% 0.000 in 7.00 W/m2
06:49 78.3 °F 73.4 °F 30.0 in SSE 1 mph 2 mph 85% 0.000 in 9.00 W/m2
06:54 78.3 °F 73.8 °F 30.0 in SSE 2 mph 2 mph 86% 0.000 in 11.00 W/m2
06:59 78.3 °F 73.8 °F 30.0 in SSE 1 mph 2 mph 86% 0.000 in 12.00 W/m2
07:04 78.4 °F 73.9 °F 30.0 in South 2 mph 3 mph 86% 0.000 in 14.00 W/m2
07:09 78.4 °F 74.3 °F 30.0 in South 2 mph 3 mph 87% 0.000 in 16.00 W/m2
07:14 78.6 °F 74.5 °F 30.0 in South 3 mph 3 mph 87% 0.000 in 18.00 W/m2
07:19 78.6 °F 74.5 °F 30.0 in South 2 mph 3 mph 87% 0.000 in 19.00 W/m2
07:24 79.0 °F 74.8 °F 30.0 in South 3 mph 3 mph 87% 0.000 in 37.00 W/m2
07:29 79.0 °F 74.8 °F 30.0 in South 4 mph 5 mph 87% 0.000 in 44.00 W/m2
07:34 79.3 °F 75.6 °F 30.0 in SSE 5 mph 5 mph 88% 0.000 in 58.00 W/m2
07:39 79.3 °F 75.6 °F 30.0 in SSE 5 mph 5 mph 88% 0.000 in 25.00 W/m2
07:44 79.5 °F 75.6 °F 30.0 in SSE 5 mph 5 mph 88% 0.000 in 26.00 W/m2
07:49 79.9 °F 75.9 °F 30.0 in South 4 mph 5 mph 88% 0.000 in 28.00 W/m2
07:54 80.1 °F 76.1 °F 30.0 in SSW 3 mph 4 mph 88% 0.000 in 30.00 W/m2
07:59 80.2 °F 76.3 °F 30.0 in South 4 mph 5 mph 88% 0.000 in 32.00 W/m2
08:04 80.6 °F 76.6 °F 30.0 in SSE 4 mph 5 mph 88% 0.000 in 47.00 W/m2
08:09 81.0 °F 76.6 °F 30.0 in SSE 5 mph 5 mph 87% 0.000 in 63.00 W/m2
08:14 81.1 °F 76.8 °F 30.1 in South 3 mph 5 mph 87% 0.000 in 107.00 W/m2
08:19 81.5 °F 77.0 °F 30.1 in SSW 8 mph 11 mph 87% 0.000 in 118.00 W/m2
08:24 81.9 °F 77.2 °F 30.1 in SSW 5 mph 6 mph 86% 0.000 in 105.00 W/m2
08:29 82.0 °F 76.8 °F 30.1 in SSW 9 mph 9 mph 85% 0.000 in 104.00 W/m2
08:34 82.2 °F 76.8 °F 30.1 in South 4 mph 5 mph 84% 0.000 in 104.00 W/m2
08:39 82.8 °F 77.2 °F 30.1 in South 5 mph 6 mph 84% 0.000 in 172.00 W/m2
08:44 82.9 °F 77.0 °F 30.1 in South 7 mph 7 mph 83% 0.000 in 214.00 W/m2
08:49 83.3 °F 77.0 °F 30.1 in South 7 mph 7 mph 82% 0.000 in 192.00 W/m2
08:54 83.8 °F 77.2 °F 30.1 in South 6 mph 7 mph 81% 0.000 in 218.00 W/m2
08:59 84.0 °F 77.0 °F 30.1 in South 8 mph 8 mph 80% 0.000 in 165.00 W/m2
09:04 84.0 °F 76.8 °F 30.1 in South 8 mph 8 mph 79% 0.000 in 86.00 W/m2
09:09 84.4 °F 76.8 °F 30.1 in South 8 mph 8 mph 78% 0.000 in 501.00 W/m2
09:14 84.7 °F 77.0 °F 30.1 in South 7 mph 11 mph 78% 0.000 in 501.00 W/m2
09:19 84.9 °F 76.5 °F 30.1 in South 10 mph 10 mph 76% 0.000 in 506.00 W/m2
09:24 85.5 °F 77.4 °F 30.1 in South 7 mph 10 mph 77% 0.000 in 582.00 W/m2
09:29 86.2 °F 77.7 °F 30.1 in South 11 mph 11 mph 77% 0.000 in 571.00 W/m2
09:34 86.7 °F 77.5 °F 30.1 in South 6 mph 11 mph 75% 0.000 in 538.00 W/m2
09:39 87.1 °F 77.4 °F 30.1 in SW 8 mph 9 mph 73% 0.000 in 531.00 W/m2
09:44 87.4 °F 77.0 °F 30.1 in SSW 6 mph 9 mph 72% 0.000 in 183.00 W/m2
09:49 87.4 °F 76.8 °F 30.1 in SSW 8 mph 8 mph 71% 0.000 in 218.00 W/m2
09:54 87.6 °F 76.1 °F 30.1 in SW 8 mph 8 mph 69% 0.000 in 563.00 W/m2
09:59 87.8 °F 76.3 °F 30.1 in SSW 8 mph 9 mph 69% 0.000 in 580.00 W/m2
10:04 88.0 °F 76.5 °F 30.1 in SSW 7 mph 8 mph 69% 0.000 in 603.00 W/m2
10:09 88.3 °F 76.8 °F 30.1 in SSW 5 mph 7 mph 69% 0.000 in 642.00 W/m2
10:14 88.5 °F 76.8 °F 30.1 in South 8 mph 8 mph 69% 0.000 in 642.00 W/m2
10:19 89.2 °F 76.6 °F 30.1 in South 11 mph 12 mph 67% 0.000 in 624.00 W/m2
10:24 89.8 °F 76.5 °F 30.1 in SSE 9 mph 12 mph 66% 0.000 in 684.00 W/m2
10:29 90.3 °F 76.6 °F 30.1 in South 9 mph 12 mph 65% 0.000 in 670.00 W/m2
10:34 91.0 °F 76.8 °F 30.1 in South 10 mph 10 mph 64% 0.000 in 700.00 W/m2
10:39 91.6 °F 75.7 °F 30.1 in SSE 10 mph 13 mph 61% 0.000 in 694.00 W/m2
10:44 92.5 °F 75.2 °F 30.1 in South 10 mph 13 mph 58% 0.000 in 701.00 W/m2
10:49 92.8 °F 75.0 °F 30.1 in SSE 16 mph 16 mph 57% 0.000 in 729.00 W/m2
10:54 93.2 °F 75.6 °F 30.1 in SSE 9 mph 10 mph 57% 0.000 in 763.00 W/m2
10:59 93.7 °F 75.7 °F 30.1 in South 10 mph 11 mph 56% 0.000 in 842.00 W/m2
11:04 94.3 °F 75.7 °F 30.1 in SSE 9 mph 11 mph 56% 0.000 in 900.00 W/m2
11:09 94.6 °F 75.4 °F 30.1 in South 9 mph 9 mph 54% 0.000 in 942.00 W/m2
11:14 95.2 °F 75.4 °F 30.1 in South 8 mph 8 mph 54% 0.000 in 933.00 W/m2
11:19 95.5 °F 75.6 °F 30.1 in South 7 mph 7 mph 53% 0.000 in 893.00 W/m2
11:24 95.7 °F 74.7 °F 30.1 in South 10 mph 14 mph 51% 0.000 in 939.00 W/m2
11:29 96.3 °F 75.2 °F 30.1 in South 8 mph 8 mph 51% 0.000 in 963.00 W/m2
Villages of Bridgestone, Spring, TX USA
Compliments of Weather Underground - 4 mb